Observation data for Seymour on 04/24/2019      Previous  Date  Next       Current Mesonet Observations  Soil Data  Daily Summary Page  Observations in Plain Language
KSE1 240500Z 01008KT 15/13 A30 RMK A01 T01510129  RH  090%=      5-min Rain = 0
KSE1 240505Z 01007KT 15/13 A30 RMK A01 T01510128  RH  090%=      5-min Rain = 0
KSE1 240510Z 01008KT 15/13 A30 RMK A01 T01510128  RH  090%=      5-min Rain = 0
KSE1 240515Z 00007KT 15/13 A30 RMK A01 T01510127  RH  089%=      5-min Rain = 0
KSE1 240520Z 00007KT 15/13 A2999 RMK A01 T01510127  RH  089%=      5-min Rain = 0
KSE1 240525Z 36007KT 15/13 A2999 RMK A01 T01500127  RH  089%=      5-min Rain = 0
KSE1 240530Z 35006KT 15/13 A30 RMK A01 T01500127  RH  089%=      5-min Rain = 0
KSE1 240535Z 36004KT 15/13 A3001 RMK A01 T01510128  RH  090%=      5-min Rain = 0
KSE1 240540Z 36004KT 15/13 A3001 RMK A01 T01510127  RH  089%=      5-min Rain = 0
KSE1 240545Z 03003KT 15/13 A3001 RMK A01 T01500126  RH  089%=      5-min Rain = 0
KSE1 240550Z 03002KT 15/13 A3001 RMK A01 T01480126  RH  090%=      5-min Rain = 0
KSE1 240555Z 11000KT 15/13 A3002 RMK A01 T01470126  RH  090%=      5-min Rain = 0
KSE1 240600Z 11000KT 15/13 A3002 RMK A01 T01460125  RH  091%=      5-min Rain = 0
KSE1 240605Z 11001KT 15/13 A3002 RMK A01 T01460126  RH  091%=      5-min Rain = 0
KSE1 240610Z 09002KT 15/13 A3001 RMK A01 T01450126  RH  092%=      5-min Rain = 0
KSE1 240615Z 08003KT 15/13 A30 RMK A01 T01460128  RH  093%=      5-min Rain = 0
KSE1 240620Z 08004KT 15/13 A2998 RMK A01 T01450128  RH  093%=      5-min Rain = 0
KSE1 240625Z 06005KT 15/13 A2997 RMK A01 T01450129  RH  093%=      5-min Rain = 0
KSE1 240630Z 04004KT 15/13 A2997 RMK A01 T01450129  RH  093%=      5-min Rain = 0
KSE1 240635Z 04005KT 15/13 A2997 RMK A01 T01460129  RH  094%=      5-min Rain = 0
KSE1 240640Z 05007KT 15/13 A2995 RMK A01 T01450128  RH  094%=      5-min Rain = 0
KSE1 240645Z 04007KT 14/13 A2995 RMK A01 T01440129  RH  094%=      5-min Rain = 0
KSE1 240650Z 04005KT 14/13 A2997 RMK A01 T01440129  RH  094%=      5-min Rain = 0
KSE1 240655Z 02001KT 14/13 A2998 RMK A01 T01440129  RH  094%=      5-min Rain = 0
KSE1 240700Z 04005KT 15/13 A2996 RMK A01 T01450130  RH  095%=      5-min Rain = 0
KSE1 240705Z 05007KT 14/13 A2994 RMK A01 T01440129  RH  095%=      5-min Rain = 0
KSE1 240710Z 06010G15KT 14/13 A2992 RMK A01 T01440130  RH  095%=      5-min Rain = 0
KSE1 240715Z 05009G14KT 14/13 A2992 RMK A01 T01440129  RH  095%=      5-min Rain = 0
KSE1 240720Z 35007KT 15/13 A2995 RMK A01 T01450130  RH  095%=      5-min Rain = 0
KSE1 240725Z 01006KT 14/13 A2996 RMK A01 T01440129  RH  094%=      5-min Rain = 0
KSE1 240730Z 01006KT 14/13 A2996 RMK A01 T01440128  RH  094%=      5-min Rain = 0
KSE1 240735Z 03006KT 14/13 A2996 RMK A01 T01440127  RH  093%=      5-min Rain = 0
KSE1 240740Z 04007KT 14/13 A2995 RMK A01 T01430126  RH  093%=      5-min Rain = 0
KSE1 240745Z 03003KT 14/13 A2996 RMK A01 T01420126  RH  094%=      5-min Rain = 0
KSE1 240750Z 03003KT 14/13 A2998 RMK A01 T01430127  RH  094%=      5-min Rain = 0
KSE1 240755Z 05004KT 14/13 A2997 RMK A01 T01430126  RH  093%=      5-min Rain = 0
KSE1 240800Z 07005KT 14/13 A2997 RMK A01 T01420126  RH  093%=      5-min Rain = 0
KSE1 240805Z 07005KT 14/13 A2996 RMK A01 T01420126  RH  093%=      5-min Rain = 0
KSE1 240810Z 04004KT 14/13 A2996 RMK A01 T01420126  RH  093%=      5-min Rain = 0
KSE1 240815Z 05004KT 14/13 A2997 RMK A01 T01420126  RH  093%=      5-min Rain = 0
KSE1 240820Z 06004KT 14/13 A2997 RMK A01 T01420125  RH  093%=      5-min Rain = 0
KSE1 240825Z 05004KT 14/13 A2996 RMK A01 T01420125  RH  093%=      5-min Rain = 0
KSE1 240830Z 05005KT 14/13 A2995 RMK A01 T01420125  RH  093%=      5-min Rain = 0
KSE1 240835Z 06004KT 14/13 A2995 RMK A01 T01420125  RH  093%=      5-min Rain = 0
KSE1 240840Z 06003KT 14/13 A2995 RMK A01 T01410125  RH  093%=      5-min Rain = 0
KSE1 240845Z 06004KT 14/13 A2995 RMK A01 T01410125  RH  093%=      5-min Rain = 0
KSE1 240850Z 03004KT 14/13 A2995 RMK A01 T01420125  RH  093%=      5-min Rain = 0
KSE1 240855Z 03005KT 14/13 A2995 RMK A01 T01420126  RH  093%=      5-min Rain = 0
KSE1 240900Z 03006KT 14/13 A2995 RMK A01 T01420126  RH  093%=      5-min Rain = 0
KSE1 240905Z 03006KT 14/13 A2995 RMK A01 T01420126  RH  094%=      5-min Rain = 0
KSE1 240910Z 04004KT 14/13 A2995 RMK A01 T01420126  RH  094%=      5-min Rain = 0
KSE1 240915Z 03005KT 14/13 A2995 RMK A01 T01420126  RH  094%=      5-min Rain = 0
KSE1 240920Z 03005KT 14/13 A2995 RMK A01 T01410125  RH  094%=      5-min Rain = 0
KSE1 240925Z 03003KT 14/13 A2995 RMK A01 T01410125  RH  094%=      5-min Rain = 0
KSE1 240930Z 02003KT 14/13 A2995 RMK A01 T01410125  RH  094%=      5-min Rain = 0
KSE1 240935Z 02004KT 14/13 A2995 RMK A01 T01400125  RH  094%=      5-min Rain = 0
KSE1 240940Z 01005KT 14/13 A2994 RMK A01 T01390125  RH  094%=      5-min Rain = 0
KSE1 240945Z 01005KT 14/13 A2994 RMK A01 T01390125  RH  095%=      5-min Rain = 0
KSE1 240950Z 00005KT 14/12 A2994 RMK A01 T01380124  RH  095%=      5-min Rain = 0
KSE1 240955Z 00004KT 14/12 A2994 RMK A01 T01370123  RH  095%=      5-min Rain = 0
KSE1 241000Z 35003KT 14/12 A2995 RMK A01 T01370123  RH  095%=      5-min Rain = 0
KSE1 241005Z 00003KT 14/12 A2994 RMK A01 T01370123  RH  095%=      5-min Rain = 0
KSE1 241010Z 01004KT 14/12 A2994 RMK A01 T01360122  RH  094%=      5-min Rain = 0
KSE1 241015Z 01004KT 14/12 A2993 RMK A01 T01350121  RH  095%=      5-min Rain = 0
KSE1 241020Z 02003KT 14/12 A2993 RMK A01 T01350122  RH  095%=      5-min Rain = 0
KSE1 241025Z 03002KT 14/12 A2993 RMK A01 T01350122  RH  095%=      5-min Rain = 0
KSE1 241030Z 06003KT 14/12 A2992 RMK A01 T01360122  RH  095%=      5-min Rain = 0
KSE1 241035Z 05004KT 14/12 A2992 RMK A01 T01360123  RH  095%=      5-min Rain = 0
KSE1 241040Z 31002KT 14/12 A2994 RMK A01 T01370124  RH  095%=      5-min Rain = 0
KSE1 241045Z 31003KT 14/13 A2995 RMK A01 T01380125  RH  095%=      5-min Rain = 0
KSE1 241050Z 31003KT 14/13 A2995 RMK A01 T01390125  RH  095%=      5-min Rain = 0
KSE1 241055Z 33002KT 14/13 A2994 RMK A01 T01390125  RH  095%=      5-min Rain = 0
KSE1 241100Z 34003KT 14/13 A2994 RMK A01 T01390125  RH  095%=      5-min Rain = 0
KSE1 241105Z 33003KT 14/13 A2994 RMK A01 T01390126  RH  095%=      5-min Rain = 0
KSE1 241110Z 33003KT 14/13 A2994 RMK A01 T01400126  RH  095%=      5-min Rain = 0
KSE1 241115Z 36003KT 14/13 A2994 RMK A01 T01390125  RH  095%=      5-min Rain = 0
KSE1 241120Z 00005KT 14/13 A2993 RMK A01 T01400125  RH  095%=      5-min Rain = 0
KSE1 241125Z 00005KT 14/13 A2992 RMK A01 T01390125  RH  095%=      5-min Rain = 0
KSE1 241130Z 03005KT 14/13 A2992 RMK A01 T01390125  RH  095%=      5-min Rain = 0
KSE1 241135Z 00003KT 14/12 A2993 RMK A01 T01390124  RH  095%=      5-min Rain = 0
KSE1 241140Z 32004KT 14/13 A2994 RMK A01 T01390125  RH  095%=      5-min Rain = 0
KSE1 241145Z 32005KT 14/12 A2995 RMK A01 T01390124  RH  094%=      5-min Rain = 0
KSE1 241150Z 31006KT 14/12 A2995 RMK A01 T01390124  RH  094%=      5-min Rain = 0
KSE1 241155Z 31005KT 14/12 A2995 RMK A01 T01390123  RH  094%=      5-min Rain = 0
KSE1 241200Z 34005KT 14/12 A2995 RMK A01 T01390123  RH  093%=      5-min Rain = 0
KSE1 241205Z 34004KT 14/12 A2995 RMK A01 T01390123  RH  094%=      5-min Rain = 0
KSE1 241210Z 35005KT 14/12 A2995 RMK A01 T01380123  RH  094%=      5-min Rain = 0
KSE1 241215Z 35005KT 14/12 A2995 RMK A01 T01380124  RH  094%=      5-min Rain = 0
KSE1 241220Z 35005KT 14/12 A2994 RMK A01 T01380123  RH  094%=      5-min Rain = 0
KSE1 241225Z 34005KT 14/12 A2995 RMK A01 T01380123  RH  095%=      5-min Rain = 0
KSE1 241230Z 32004KT 14/12 A2995 RMK A01 T01380124  RH  095%=      5-min Rain = 0
KSE1 241235Z 34005KT 14/12 A2995 RMK A01 T01380124  RH  095%=      5-min Rain = 0
KSE1 241240Z 35006KT 14/12 A2994 RMK A01 T01380124  RH  095%=      5-min Rain = 0
KSE1 241245Z 34006KT 14/12 A2994 RMK A01 T01380123  RH  095%=      5-min Rain = 0
KSE1 241250Z 35007KT 14/12 A2993 RMK A01 T01380124  RH  095%=      5-min Rain = 0
KSE1 241255Z 35007KT 14/12 A2993 RMK A01 T01380124  RH  095%=      5-min Rain = 0
KSE1 241300Z 01007KT 14/12 A2992 RMK A01 T01380124  RH  095%=      5-min Rain = 0
KSE1 241305Z 01008KT 14/12 A2991 RMK A01 T01380124  RH  095%=      5-min Rain = 0
KSE1 241310Z 35007KT 14/12 A2993 RMK A01 T01380123  RH  094%=      5-min Rain = 0
KSE1 241315Z 35008KT 14/12 A2993 RMK A01 T01390124  RH  094%=      5-min Rain = 0
KSE1 241320Z 34007KT 14/12 A2993 RMK A01 T01390123  RH  094%=      5-min Rain = 0
KSE1 241325Z 33008KT 14/12 A2994 RMK A01 T01390123  RH  094%=      5-min Rain = 0
KSE1 241330Z 33007KT 14/12 A2995 RMK A01 T01380122  RH  093%=      5-min Rain = 0
KSE1 241335Z 33007KT 14/12 A2995 RMK A01 T01380121  RH  093%=      5-min Rain = 0
KSE1 241340Z 34007KT 14/12 A2995 RMK A01 T01380122  RH  093%=      5-min Rain = 0
KSE1 241345Z 35007KT 14/12 A2994 RMK A01 T01390122  RH  093%=      5-min Rain = 0
KSE1 241350Z 36008KT 14/12 A2994 RMK A01 T01390122  RH  093%=      5-min Rain = 0
KSE1 241355Z 35007KT 14/12 A2994 RMK A01 T01390122  RH  093%=      5-min Rain = 0
KSE1 241400Z 36007KT 14/12 A2994 RMK A01 T01390122  RH  093%=      5-min Rain = 0
KSE1 241405Z 35008KT 14/12 A2994 RMK A01 T01390122  RH  093%=      5-min Rain = 0
KSE1 241410Z 35010KT 14/12 A2994 RMK A01 T01390122  RH  093%=      5-min Rain = 0
KSE1 241415Z 35009KT 14/12 A2994 RMK A01 T01390122  RH  093%=      5-min Rain = 0
KSE1 241420Z 34008KT 14/12 A2995 RMK A01 T01390122  RH  093%=      5-min Rain = 0
KSE1 241425Z 34009KT 14/12 A2995 RMK A01 T01380121  RH  093%=      5-min Rain = 0
KSE1 241430Z 34009KT 14/12 A2995 RMK A01 T01380120  RH  092%=      5-min Rain = 0
KSE1 241435Z 35008KT 14/12 A2995 RMK A01 T01390121  RH  092%=      5-min Rain = 0
KSE1 241440Z 35008KT 14/12 A2994 RMK A01 T01390120  RH  092%=      5-min Rain = 0
KSE1 241445Z 34010KT 14/12 A2994 RMK A01 T01390119  RH  091%=      5-min Rain = 0
KSE1 241450Z 36010KT 14/12 A2994 RMK A01 T01390119  RH  091%=      5-min Rain = 0
KSE1 241455Z 34010KT 14/12 A2994 RMK A01 T01390119  RH  091%=      5-min Rain = 0
KSE1 241500Z 34009KT 14/12 A2994 RMK A01 T01380119  RH  091%=      5-min Rain = 0
KSE1 241505Z 35009KT 14/12 A2994 RMK A01 T01390120  RH  092%=      5-min Rain = 0
KSE1 241510Z 35010KT 14/12 A2993 RMK A01 T01390119  RH  091%=      5-min Rain = 0
KSE1 241515Z 35010KT 14/12 A2993 RMK A01 T01390119  RH  091%=      5-min Rain = 0
KSE1 241520Z 35011KT 14/12 A2993 RMK A01 T01400120  RH  091%=      5-min Rain = 0
KSE1 241525Z 35011KT 14/12 A2993 RMK A01 T01410120  RH  090%=      5-min Rain = 0
KSE1 241530Z 35010KT 14/12 A2993 RMK A01 T01440121  RH  090%=      5-min Rain = 0
KSE1 241535Z 36011KT 15/12 A2993 RMK A01 T01450120  RH  089%=      5-min Rain = 0
KSE1 241540Z 34011KT 15/12 A2994 RMK A01 T01450120  RH  088%=      5-min Rain = 0
KSE1 241545Z 35013KT 15/12 A2994 RMK A01 T01450118  RH  087%=      5-min Rain = 0
KSE1 241550Z 35012KT 15/12 A2995 RMK A01 T01450117  RH  086%=      5-min Rain = 0
KSE1 241555Z 35012KT 15/12 A2995 RMK A01 T01460118  RH  086%=      5-min Rain = 0
KSE1 241600Z 35014KT 15/12 A2995 RMK A01 T01450116  RH  086%=      5-min Rain = 0
KSE1 241605Z 35014KT 14/12 A2994 RMK A01 T01440115  RH  086%=      5-min Rain = 0
KSE1 241610Z 35014KT 14/12 A2994 RMK A01 T01440115  RH  086%=      5-min Rain = 0
KSE1 241615Z 35014KT 15/12 A2994 RMK A01 T01450115  RH  085%=      5-min Rain = 0
KSE1 241620Z 35013KT 15/11 A2995 RMK A01 T01450113  RH  084%=      5-min Rain = 0
KSE1 241625Z 01009KT 15/11 A2996 RMK A01 T01460114  RH  084%=      5-min Rain = 0
KSE1 241630Z 01009KT 15/12 A2997 RMK A01 T01470115  RH  084%=      5-min Rain = 0
KSE1 241635Z 02010KT 15/11 A2996 RMK A01 T01470114  RH  083%=      5-min Rain = 0
KSE1 241640Z 01010KT 15/12 A2996 RMK A01 T01500115  RH  083%=      5-min Rain = 0
KSE1 241645Z 01010KT 15/12 A2996 RMK A01 T01500115  RH  083%=      5-min Rain = 0
KSE1 241650Z 02010KT 15/11 A2996 RMK A01 T01500114  RH  082%=      5-min Rain = 0
KSE1 241655Z 01008KT 15/12 A2996 RMK A01 T01500115  RH  083%=      5-min Rain = 0
KSE1 241700Z 00008G13KT 15/12 A2995 RMK A01 T01520118  RH  083%=      5-min Rain = 0
KSE1 241705Z 01010KT 15/12 A2995 RMK A01 T01520117  RH  083%=      5-min Rain = 0
KSE1 241710Z 02010KT 15/12 A2995 RMK A01 T01520117  RH  082%=      5-min Rain = 0
KSE1 241715Z 03011KT 15/12 A2995 RMK A01 T01530116  RH  082%=      5-min Rain = 0
KSE1 241720Z 02010KT 15/12 A2995 RMK A01 T01530116  RH  082%=      5-min Rain = 0
KSE1 241725Z 02009KT 15/12 A2995 RMK A01 T01510116  RH  082%=      5-min Rain = 0
KSE1 241730Z 01010KT 15/12 A2995 RMK A01 T01510116  RH  082%=      5-min Rain = 0
KSE1 241735Z 01009KT 15/12 A2995 RMK A01 T01530117  RH  082%=      5-min Rain = 0
KSE1 241740Z 36009KT 15/12 A2994 RMK A01 T01530118  RH  082%=      5-min Rain = 0
KSE1 241745Z 00009KT 16/12 A2994 RMK A01 T01550118  RH  081%=      5-min Rain = 0
KSE1 241750Z 36008KT 16/12 A2994 RMK A01 T01550117  RH  081%=      5-min Rain = 0
KSE1 241755Z 00009KT 16/12 A2993 RMK A01 T01550117  RH  081%=      5-min Rain = 0
KSE1 241800Z 00007KT 16/12 A2993 RMK A01 T01570117  RH  080%=      5-min Rain = 0
KSE1 241805Z 01009KT 16/12 A2993 RMK A01 T01580118  RH  080%=      5-min Rain = 0
KSE1 241810Z 00008KT 16/12 A2993 RMK A01 T01570117  RH  080%=      5-min Rain = 0
KSE1 241815Z 00007KT 16/12 A2993 RMK A01 T01580117  RH  080%=      5-min Rain = 0
KSE1 241820Z 01007KT 16/12 A2993 RMK A01 T01580116  RH  079%=      5-min Rain = 0
KSE1 241825Z 35008KT 16/12 A2992 RMK A01 T01590117  RH  079%=      5-min Rain = 0
KSE1 241830Z 34005KT 16/12 A2992 RMK A01 T01590115  RH  078%=      5-min Rain = 0
KSE1 241835Z 36003KT 16/11 A2992 RMK A01 T01580114  RH  078%=      5-min Rain = 0
KSE1 241840Z 35007KT 16/12 A2991 RMK A01 T01600115  RH  078%=      5-min Rain = 0
KSE1 241845Z 35007KT 16/12 A2991 RMK A01 T01630117  RH  077%=      5-min Rain = 0
KSE1 241850Z 34005KT 16/12 A2991 RMK A01 T01640116  RH  076%=      5-min Rain = 0
KSE1 241855Z 33003KT 16/12 A2991 RMK A01 T01640117  RH  076%=      5-min Rain = 0
KSE1 241900Z 33003KT 16/12 A2991 RMK A01 T01640117  RH  076%=      5-min Rain = 0
KSE1 241905Z 36005KT 17/12 A2991 RMK A01 T01660118  RH  076%=      5-min Rain = 0
KSE1 241910Z 34003KT 17/12 A2991 RMK A01 T01660118  RH  076%=      5-min Rain = 0
KSE1 241915Z 33001KT 17/12 A2992 RMK A01 T01680119  RH  076%=      5-min Rain = 0
KSE1 241920Z 04001KT 17/12 A2992 RMK A01 T01680116  RH  074%=      5-min Rain = 0
KSE1 241925Z 04001KT 17/12 A2991 RMK A01 T01680116  RH  074%=      5-min Rain = 0
KSE1 241930Z 08000KT 17/12 A2991 RMK A01 T01680116  RH  074%=      5-min Rain = 0
KSE1 241935Z 27003KT 17/12 A2991 RMK A01 T01710120  RH  075%=      5-min Rain = 0
KSE1 241940Z 25002KT 17/12 A2991 RMK A01 T01700117  RH  074%=      5-min Rain = 0
KSE1 241945Z 25002KT 17/12 A2992 RMK A01 T01720118  RH  073%=      5-min Rain = 0
KSE1 241950Z 19002KT 18/12 A2992 RMK A01 T01750121  RH  074%=      5-min Rain = 0
KSE1 241955Z 24005KT 18/12 A2993 RMK A01 T01750120  RH  073%=      5-min Rain = 0
KSE1 242000Z 22003KT 17/12 A2992 RMK A01 T01730119  RH  073%=      5-min Rain = 0
KSE1 242005Z 25004KT 17/12 A2992 RMK A01 T01730118  RH  072%=      5-min Rain = 0
KSE1 242010Z 23003KT 18/12 A2992 RMK A01 T01760121  RH  073%=      5-min Rain = 0
KSE1 242015Z 21003KT 18/12 A2992 RMK A01 T01780122  RH  073%=      5-min Rain = 0
KSE1 242020Z 23003KT 18/12 A2992 RMK A01 T01750118  RH  072%=      5-min Rain = 0
KSE1 242025Z 23004KT 18/12 A2992 RMK A01 T01750118  RH  072%=      5-min Rain = 0
KSE1 242030Z 23003KT 18/12 A2992 RMK A01 T01750118  RH  072%=      5-min Rain = 0
KSE1 242035Z 24004KT 17/12 A2992 RMK A01 T01740115  RH  071%=      5-min Rain = 0
KSE1 242040Z 21003KT 17/12 A2992 RMK A01 T01730117  RH  072%=      5-min Rain = 0
KSE1 242045Z 20003KT 17/12 A2992 RMK A01 T01740117  RH  072%=      5-min Rain = 0
KSE1 242050Z 17002KT 18/12 A2992 RMK A01 T01750118  RH  072%=      5-min Rain = 0
KSE1 242055Z 18002KT 18/12 A2991 RMK A01 T01750117  RH  071%=      5-min Rain = 0
KSE1 242100Z 16003KT 18/12 A2991 RMK A01 T01770120  RH  072%=      5-min Rain = 0
KSE1 242105Z 19002KT 18/12 A2991 RMK A01 T01760119  RH  072%=      5-min Rain = 0
KSE1 242110Z 23001KT 18/12 A2991 RMK A01 T01750115  RH  071%=      5-min Rain = 0
KSE1 242115Z 24001KT 18/12 A2991 RMK A01 T01760117  RH  071%=      5-min Rain = 0
KSE1 242120Z 22003KT 18/12 A2991 RMK A01 T01750115  RH  070%=      5-min Rain = 0
KSE1 242125Z 24003KT 18/12 A2991 RMK A01 T01750116  RH  071%=      5-min Rain = 0
KSE1 242130Z 24003KT 17/11 A299 RMK A01 T01740114  RH  070%=      5-min Rain = 0
KSE1 242135Z 26003KT 17/12 A299 RMK A01 T01740116  RH  071%=      5-min Rain = 0
KSE1 242140Z 24003KT 18/12 A2989 RMK A01 T01750117  RH  072%=      5-min Rain = 0
KSE1 242145Z 24004KT 17/11 A2989 RMK A01 T01740114  RH  071%=      5-min Rain = 0
KSE1 242150Z 25003KT 17/12 A2989 RMK A01 T01740115  RH  071%=      5-min Rain = 0
KSE1 242155Z 24005KT 18/11 A2989 RMK A01 T01750114  RH  070%=      5-min Rain = 0
KSE1 242200Z 25003KT 18/12 A2988 RMK A01 T01750117  RH  071%=      5-min Rain = 0
KSE1 242205Z 25004KT 18/12 A2988 RMK A01 T01760119  RH  072%=      5-min Rain = 0
KSE1 242210Z 26004KT 18/12 A2988 RMK A01 T01760116  RH  071%=      5-min Rain = 0
KSE1 242215Z 25005KT 18/12 A2987 RMK A01 T01750117  RH  071%=      5-min Rain = 0
KSE1 242220Z 23005KT 18/12 A2987 RMK A01 T01760119  RH  072%=      5-min Rain = 0
KSE1 242225Z 24005KT 18/12 A2987 RMK A01 T01760117  RH  071%=      5-min Rain = 0
KSE1 242230Z 22004KT 18/12 A2987 RMK A01 T01770119  RH  071%=      5-min Rain = 0
KSE1 242235Z 22004KT 18/12 A2987 RMK A01 T01780119  RH  071%=      5-min Rain = 0
KSE1 242240Z 21003KT 18/12 A2986 RMK A01 T01800117  RH  069%=      5-min Rain = 0
KSE1 242245Z 22004KT 18/12 A2986 RMK A01 T01800118  RH  069%=      5-min Rain = 0
KSE1 242250Z 25005KT 18/12 A2986 RMK A01 T01800118  RH  070%=      5-min Rain = 0
KSE1 242255Z 25003KT 18/12 A2985 RMK A01 T01790117  RH  069%=      5-min Rain = 0
KSE1 242300Z 26005KT 18/12 A2985 RMK A01 T01780117  RH  070%=      5-min Rain = 0
KSE1 242305Z 23003KT 18/11 A2985 RMK A01 T01760114  RH  070%=      5-min Rain = 0
KSE1 242310Z 23003KT 18/12 A2984 RMK A01 T01760117  RH  071%=      5-min Rain = 0
KSE1 242315Z 24005KT 18/12 A2984 RMK A01 T01750116  RH  071%=      5-min Rain = 0
KSE1 242320Z 27004KT 17/12 A2985 RMK A01 T01740118  RH  072%=      5-min Rain = 0
KSE1 242325Z 26003KT 17/12 A2985 RMK A01 T01730117  RH  072%=      5-min Rain = 0
KSE1 242330Z 23002KT 17/12 A2985 RMK A01 T01730116  RH  072%=      5-min Rain = 0
KSE1 242335Z 24002KT 17/12 A2985 RMK A01 T01730118  RH  073%=      5-min Rain = 0
KSE1 242340Z 30002KT 17/11 A2984 RMK A01 T01730114  RH  071%=      5-min Rain = 0
KSE1 242345Z 27003KT 17/12 A2984 RMK A01 T01720116  RH  072%=      5-min Rain = 0
KSE1 242350Z 26002KT 17/12 A2984 RMK A01 T01700115  RH  073%=      5-min Rain = 0
KSE1 242355Z 28001KT 17/12 A2984 RMK A01 T01700116  RH  074%=      5-min Rain = 0
KSE1 250000Z 27001KT 17/12 A2984 RMK A01 T01690118  RH  074%=      5-min Rain = 0
KSE1 250005Z 27002KT 17/12 A2984 RMK A01 T01680118  RH  075%=      5-min Rain = 0
KSE1 250010Z 29002KT 17/12 A2984 RMK A01 T01680117  RH  075%=      5-min Rain = 0
KSE1 250015Z 28002KT 17/12 A2984 RMK A01 T01680119  RH  076%=      5-min Rain = 0
KSE1 250020Z 28002KT 17/12 A2984 RMK A01 T01670120  RH  077%=      5-min Rain = 0
KSE1 250025Z 29001KT 17/12 A2984 RMK A01 T01660118  RH  076%=      5-min Rain = 0
KSE1 250030Z 30001KT 17/12 A2984 RMK A01 T01660119  RH  076%=      5-min Rain = 0
KSE1 250035Z 29002KT 17/12 A2984 RMK A01 T01660119  RH  076%=      5-min Rain = 0
KSE1 250040Z 28001KT 17/12 A2984 RMK A01 T01650118  RH  076%=      5-min Rain = 0
KSE1 250045Z 28001KT 17/12 A2984 RMK A01 T01660119  RH  077%=      5-min Rain = 0
KSE1 250050Z 25001KT 17/12 A2984 RMK A01 T01660119  RH  077%=      5-min Rain = 0
KSE1 250055Z 26002KT 17/12 A2984 RMK A01 T01650116  RH  076%=      5-min Rain = 0
KSE1 250100Z 26002KT 16/12 A2984 RMK A01 T01630115  RH  076%=      5-min Rain = 0
KSE1 250105Z 24003KT 16/12 A2984 RMK A01 T01620117  RH  077%=      5-min Rain = 0
KSE1 250110Z 24003KT 16/11 A2984 RMK A01 T01590114  RH  077%=      5-min Rain = 0
KSE1 250115Z 25002KT 16/12 A2984 RMK A01 T01590115  RH  078%=      5-min Rain = 0
KSE1 250120Z 26003KT 16/12 A2983 RMK A01 T01600119  RH  080%=      5-min Rain = 0
KSE1 250125Z 26003KT 16/12 A2983 RMK A01 T01580120  RH  081%=      5-min Rain = 0
KSE1 250130Z 26003KT 16/12 A2983 RMK A01 T01570120  RH  082%=      5-min Rain = 0
KSE1 250135Z 27003KT 16/12 A2983 RMK A01 T01570123  RH  083%=      5-min Rain = 0
KSE1 250140Z 28004KT 16/13 A2983 RMK A01 T01570125  RH  084%=      5-min Rain = 0
KSE1 250145Z 28003KT 16/13 A2983 RMK A01 T01570126  RH  085%=      5-min Rain = 0
KSE1 250150Z 28004KT 16/12 A2983 RMK A01 T01560124  RH  085%=      5-min Rain = 0
KSE1 250155Z 28004KT 15/12 A2982 RMK A01 T01540124  RH  085%=      5-min Rain = 0
KSE1 250200Z 29004KT 15/12 A2983 RMK A01 T01540124  RH  086%=      5-min Rain = 0
KSE1 250205Z 28004KT 15/12 A2983 RMK A01 T01540123  RH  085%=      5-min Rain = 0
KSE1 250210Z 27004KT 15/12 A2983 RMK A01 T01510122  RH  086%=      5-min Rain = 0
KSE1 250215Z 27003KT 15/12 A2983 RMK A01 T01500124  RH  088%=      5-min Rain = 0
KSE1 250220Z 28003KT 15/13 A2983 RMK A01 T01510126  RH  088%=      5-min Rain = 0
KSE1 250225Z 26002KT 15/13 A2984 RMK A01 T01510126  RH  088%=      5-min Rain = 0
KSE1 250230Z 22003KT 15/12 A2984 RMK A01 T01470123  RH  089%=      5-min Rain = 0
KSE1 250235Z 18003KT 15/13 A2985 RMK A01 T01480125  RH  089%=      5-min Rain = 0
KSE1 250240Z 16004KT 15/12 A2985 RMK A01 T01480124  RH  089%=      5-min Rain = 0
KSE1 250245Z 16005KT 15/13 A2986 RMK A01 T01460125  RH  090%=      5-min Rain = 0
KSE1 250250Z 17006KT 15/13 A2986 RMK A01 T01470127  RH  091%=      5-min Rain = 0
KSE1 250255Z 17005KT 15/13 A2987 RMK A01 T01470127  RH  091%=      5-min Rain = 0
KSE1 250300Z 16006KT 15/13 A2987 RMK A01 T01460126  RH  091%=      5-min Rain = 0
KSE1 250305Z 16006KT 15/13 A2987 RMK A01 T01460126  RH  091%=      5-min Rain = 0
KSE1 250310Z 16005KT 15/13 A2987 RMK A01 T01450126  RH  092%=      5-min Rain = 0
KSE1 250315Z 17005KT 14/13 A2987 RMK A01 T01440126  RH  092%=      5-min Rain = 0
KSE1 250320Z 18004KT 14/13 A2987 RMK A01 T01440126  RH  093%=      5-min Rain = 0
KSE1 250325Z 19004KT 15/13 A2987 RMK A01 T01450128  RH  093%=      5-min Rain = 0
KSE1 250330Z 19004KT 15/13 A2987 RMK A01 T01450127  RH  092%=      5-min Rain = 0
KSE1 250335Z 21004KT 14/13 A2987 RMK A01 T01440125  RH  092%=      5-min Rain = 0
KSE1 250340Z 21004KT 14/12 A2987 RMK A01 T01420124  RH  092%=      5-min Rain = 0
KSE1 250345Z 22005KT 14/12 A2987 RMK A01 T01430124  RH  092%=      5-min Rain = 0
KSE1 250350Z 22005KT 14/12 A2987 RMK A01 T01430124  RH  092%=      5-min Rain = 0
KSE1 250355Z 22005KT 14/12 A2986 RMK A01 T01430124  RH  092%=      5-min Rain = 0
KSE1 250400Z 23005KT 14/12 A2986 RMK A01 T01440124  RH  091%=      5-min Rain = 0
KSE1 250405Z 23005KT 14/12 A2986 RMK A01 T01430123  RH  091%=      5-min Rain = 0
KSE1 250410Z 22005KT 14/12 A2986 RMK A01 T01430123  RH  091%=      5-min Rain = 0
KSE1 250415Z 22006KT 14/12 A2986 RMK A01 T01430124  RH  092%=      5-min Rain = 0
KSE1 250420Z 21005KT 14/12 A2986 RMK A01 T01430124  RH  091%=      5-min Rain = 0
KSE1 250425Z 20005KT 14/12 A2986 RMK A01 T01430123  RH  091%=      5-min Rain = 0
KSE1 250430Z 21005KT 14/12 A2986 RMK A01 T01410122  RH  091%=      5-min Rain = 0
KSE1 250435Z 22006KT 14/12 A2986 RMK A01 T01400121  RH  092%=      5-min Rain = 0
KSE1 250440Z 22006KT 14/12 A2986 RMK A01 T01390121  RH  092%=      5-min Rain = 0
KSE1 250445Z 22005KT 14/12 A2985 RMK A01 T01400122  RH  092%=      5-min Rain = 0
KSE1 250450Z 21004KT 14/12 A2985 RMK A01 T01400122  RH  092%=      5-min Rain = 0
KSE1 250455Z 20004KT 14/12 A2985 RMK A01 T01410123  RH  092%=      5-min Rain = 0

Page generated in 0.0096 seconds.